sensor_id;sensor_type;location;lat;lon;timestamp;pressure;altitude;pressure_sealevel;temperature;humidity
75063;BME280;63981;51.052;13.754;2023-11-21T00:00:19;99734.25;;;9.95;76.80
75063;BME280;63981;51.052;13.754;2023-11-21T00:02:46;99741.78;;;10.00;76.47
75063;BME280;63981;51.052;13.754;2023-11-21T00:05:13;99729.81;;;9.96;76.26
75063;BME280;63981;51.052;13.754;2023-11-21T00:07:42;99744.72;;;10.08;76.15
75063;BME280;63981;51.052;13.754;2023-11-21T00:10:09;99745.13;;;10.15;75.68
75063;BME280;63981;51.052;13.754;2023-11-21T00:12:37;99752.19;;;10.14;76.22
75063;BME280;63981;51.052;13.754;2023-11-21T00:15:04;99740.69;;;10.15;75.65
75063;BME280;63981;51.052;13.754;2023-11-21T00:17:35;99742.47;;;10.15;76.18
75063;BME280;63981;51.052;13.754;2023-11-21T00:20:01;99736.72;;;10.10;75.89
75063;BME280;63981;51.052;13.754;2023-11-21T00:22:27;99750.31;;;10.16;75.25
75063;BME280;63981;51.052;13.754;2023-11-21T00:24:53;99748.19;;;10.21;75.92
75063;BME280;63981;51.052;13.754;2023-11-21T00:27:19;99738.28;;;10.12;75.42
75063;BME280;63981;51.052;13.754;2023-11-21T00:29:46;99745.75;;;10.18;75.91
75063;BME280;63981;51.052;13.754;2023-11-21T00:32:12;99743.78;;;10.22;75.94
75063;BME280;63981;51.052;13.754;2023-11-21T00:34:38;99749.53;;;10.27;75.52
75063;BME280;63981;51.052;13.754;2023-11-21T00:37:04;99753.75;;;10.29;75.23
75063;BME280;63981;51.052;13.754;2023-11-21T00:39:30;99754.59;;;10.30;76.01
75063;BME280;63981;51.052;13.754;2023-11-21T00:41:58;99715.88;;;10.07;75.48
75063;BME280;63981;51.052;13.754;2023-11-21T00:44:24;99757.97;;;10.32;74.69
75063;BME280;63981;51.052;13.754;2023-11-21T00:46:50;99741.63;;;10.27;75.07
75063;BME280;63981;51.052;13.754;2023-11-21T00:49:17;99761.31;;;10.34;75.38
75063;BME280;63981;51.052;13.754;2023-11-21T00:51:43;99769.00;;;10.37;75.25
75063;BME280;63981;51.052;13.754;2023-11-21T00:54:09;99771.13;;;10.32;75.43
75063;BME280;63981;51.052;13.754;2023-11-21T00:56:35;99747.00;;;10.25;75.46
75063;BME280;63981;51.052;13.754;2023-11-21T00:59:01;99768.88;;;10.39;74.82
75063;BME280;63981;51.052;13.754;2023-11-21T01:01:27;99774.69;;;10.44;74.84
75063;BME280;63981;51.052;13.754;2023-11-21T01:03:53;99753.00;;;10.27;74.87
75063;BME280;63981;51.052;13.754;2023-11-21T01:06:20;99760.41;;;10.22;75.08
75063;BME280;63981;51.052;13.754;2023-11-21T01:08:47;99772.94;;;10.19;75.82
75063;BME280;63981;51.052;13.754;2023-11-21T01:11:13;99780.66;;;10.22;75.51
75063;BME280;63981;51.052;13.754;2023-11-21T01:13:40;99783.88;;;10.25;76.27
75063;BME280;63981;51.052;13.754;2023-11-21T01:16:06;99764.19;;;10.18;75.74
75063;BME280;63981;51.052;13.754;2023-11-21T01:18:33;99786.41;;;10.27;75.69
75063;BME280;63981;51.052;13.754;2023-11-21T01:20:59;99777.66;;;10.26;75.97
75063;BME280;63981;51.052;13.754;2023-11-21T01:23:27;99786.53;;;10.25;76.17
75063;BME280;63981;51.052;13.754;2023-11-21T01:25:56;99789.16;;;10.25;75.80
75063;BME280;63981;51.052;13.754;2023-11-21T01:28:22;99787.38;;;10.26;75.65
75063;BME280;63981;51.052;13.754;2023-11-21T01:30:48;99780.00;;;10.18;75.86
75063;BME280;63981;51.052;13.754;2023-11-21T01:33:15;99790.72;;;10.28;76.34
75063;BME280;63981;51.052;13.754;2023-11-21T01:35:42;99787.78;;;10.32;75.87
75063;BME280;63981;51.052;13.754;2023-11-21T01:38:08;99783.00;;;10.38;76.00
75063;BME280;63981;51.052;13.754;2023-11-21T01:40:35;99779.94;;;10.44;75.29
75063;BME280;63981;51.052;13.754;2023-11-21T01:43:01;99780.56;;;10.47;75.71
75063;BME280;63981;51.052;13.754;2023-11-21T01:45:30;99765.19;;;10.41;75.29
75063;BME280;63981;51.052;13.754;2023-11-21T01:48:00;99777.31;;;10.44;75.55
75063;BME280;63981;51.052;13.754;2023-11-21T01:50:27;99784.16;;;10.46;75.74
75063;BME280;63981;51.052;13.754;2023-11-21T01:52:54;99781.28;;;10.49;75.44
75063;BME280;63981;51.052;13.754;2023-11-21T01:55:22;99782.00;;;10.51;75.16
75063;BME280;63981;51.052;13.754;2023-11-21T01:57:48;99776.63;;;10.53;75.14
75063;BME280;63981;51.052;13.754;2023-11-21T02:00:15;99782.72;;;10.53;74.46
75063;BME280;63981;51.052;13.754;2023-11-21T02:02:43;99778.53;;;10.51;74.61
75063;BME280;63981;51.052;13.754;2023-11-21T02:05:11;99780.94;;;10.54;74.96
75063;BME280;63981;51.052;13.754;2023-11-21T02:07:39;99776.50;;;10.54;74.58
75063;BME280;63981;51.052;13.754;2023-11-21T02:10:07;99782.53;;;10.56;74.93
75063;BME280;63981;51.052;13.754;2023-11-21T02:12:34;99781.06;;;10.52;74.12
75063;BME280;63981;51.052;13.754;2023-11-21T02:15:05;99781.63;;;10.45;74.93
75063;BME280;63981;51.052;13.754;2023-11-21T02:17:36;99777.97;;;10.34;74.78
75063;BME280;63981;51.052;13.754;2023-11-21T02:20:02;99781.09;;;10.40;74.78
75063;BME280;63981;51.052;13.754;2023-11-21T02:22:30;99791.44;;;10.43;74.67
75063;BME280;63981;51.052;13.754;2023-11-21T02:24:57;99794.81;;;10.45;74.83
75063;BME280;63981;51.052;13.754;2023-11-21T02:27:23;99788.56;;;10.46;75.50
75063;BME280;63981;51.052;13.754;2023-11-21T02:29:50;99793.84;;;10.46;75.27
75063;BME280;63981;51.052;13.754;2023-11-21T02:32:16;99793.84;;;10.46;75.42
75063;BME280;63981;51.052;13.754;2023-11-21T02:34:45;99791.94;;;10.48;74.68
75063;BME280;63981;51.052;13.754;2023-11-21T02:37:11;99791.75;;;10.38;75.16
75063;BME280;63981;51.052;13.754;2023-11-21T02:39:38;99797.38;;;10.33;75.60
75063;BME280;63981;51.052;13.754;2023-11-21T02:42:04;99798.63;;;10.28;75.43
75063;BME280;63981;51.052;13.754;2023-11-21T02:44:30;99803.72;;;10.18;75.53
75063;BME280;63981;51.052;13.754;2023-11-21T02:46:57;99792.88;;;10.10;75.58
75063;BME280;63981;51.052;13.754;2023-11-21T02:49:24;99803.50;;;10.09;75.72
75063;BME280;63981;51.052;13.754;2023-11-21T02:51:51;99805.72;;;10.02;75.82
75063;BME280;63981;51.052;13.754;2023-11-21T02:54:18;99806.28;;;9.94;75.18
75063;BME280;63981;51.052;13.754;2023-11-21T02:56:44;99810.91;;;9.91;75.65
75063;BME280;63981;51.052;13.754;2023-11-21T02:59:11;99812.06;;;9.87;75.61
75063;BME280;63981;51.052;13.754;2023-11-21T03:01:38;99800.19;;;9.81;75.68
75063;BME280;63981;51.052;13.754;2023-11-21T03:04:11;99810.59;;;9.83;75.08
75063;BME280;63981;51.052;13.754;2023-11-21T03:06:37;99809.25;;;9.77;75.42
75063;BME280;63981;51.052;13.754;2023-11-21T03:09:03;99808.81;;;9.70;75.60
75063;BME280;63981;51.052;13.754;2023-11-21T03:11:29;99820.91;;;9.73;75.77
75063;BME280;63981;51.052;13.754;2023-11-21T03:13:55;99816.00;;;9.68;75.39
75063;BME280;63981;51.052;13.754;2023-11-21T03:16:21;99817.34;;;9.61;75.74
75063;BME280;63981;51.052;13.754;2023-11-21T03:18:47;99777.34;;;9.31;76.72
75063;BME280;63981;51.052;13.754;2023-11-21T03:21:13;99804.94;;;9.38;76.19
75063;BME280;63981;51.052;13.754;2023-11-21T03:23:39;99819.56;;;9.42;76.49
75063;BME280;63981;51.052;13.754;2023-11-21T03:26:05;99811.53;;;9.31;76.53
75063;BME280;63981;51.052;13.754;2023-11-21T03:28:35;99823.97;;;9.41;76.75
75063;BME280;63981;51.052;13.754;2023-11-21T03:31:02;99820.63;;;9.39;76.60
75063;BME280;63981;51.052;13.754;2023-11-21T03:33:29;99827.84;;;9.36;76.86
75063;BME280;63981;51.052;13.754;2023-11-21T03:35:56;99827.00;;;9.35;76.61
75063;BME280;63981;51.052;13.754;2023-11-21T03:38:22;99823.75;;;9.32;77.27
75063;BME280;63981;51.052;13.754;2023-11-21T03:40:48;99818.50;;;9.32;76.88
75063;BME280;63981;51.052;13.754;2023-11-21T03:43:16;99830.69;;;9.33;77.30
75063;BME280;63981;51.052;13.754;2023-11-21T03:45:42;99830.91;;;9.30;76.87
75063;BME280;63981;51.052;13.754;2023-11-21T03:48:12;99836.50;;;9.25;76.86
75063;BME280;63981;51.052;13.754;2023-11-21T03:50:38;99833.00;;;9.25;76.52
75063;BME280;63981;51.052;13.754;2023-11-21T03:53:06;99833.94;;;9.24;77.32
75063;BME280;63981;51.052;13.754;2023-11-21T03:55:32;99839.13;;;9.25;77.14
75063;BME280;63981;51.052;13.754;2023-11-21T03:57:58;99834.59;;;9.27;76.89
75063;BME280;63981;51.052;13.754;2023-11-21T04:00:25;99822.03;;;9.18;76.67
75063;BME280;63981;51.052;13.754;2023-11-21T04:02:54;99840.78;;;9.26;76.52
75063;BME280;63981;51.052;13.754;2023-11-21T04:05:21;99842.66;;;9.24;77.18
75063;BME280;63981;51.052;13.754;2023-11-21T04:07:51;99825.53;;;9.19;77.20
75063;BME280;63981;51.052;13.754;2023-11-21T04:10:17;99836.88;;;9.19;77.03
75063;BME280;63981;51.052;13.754;2023-11-21T04:12:44;99822.25;;;9.15;77.01
75063;BME280;63981;51.052;13.754;2023-11-21T04:15:11;99837.50;;;9.23;77.16
75063;BME280;63981;51.052;13.754;2023-11-21T04:17:39;99833.50;;;9.17;77.33
75063;BME280;63981;51.052;13.754;2023-11-21T04:20:05;99841.81;;;9.24;77.26
75063;BME280;63981;51.052;13.754;2023-11-21T04:22:43;99843.44;;;9.26;77.39
75063;BME280;63981;51.052;13.754;2023-11-21T04:25:10;99836.16;;;9.30;77.40
75063;BME280;63981;51.052;13.754;2023-11-21T04:27:39;99829.50;;;9.24;77.29
75063;BME280;63981;51.052;13.754;2023-11-21T04:30:06;99832.16;;;9.37;76.97
75063;BME280;63981;51.052;13.754;2023-11-21T04:32:33;99848.72;;;9.39;76.56
75063;BME280;63981;51.052;13.754;2023-11-21T04:34:59;99839.44;;;9.33;76.19
75063;BME280;63981;51.052;13.754;2023-11-21T04:37:25;99856.50;;;9.40;76.69
75063;BME280;63981;51.052;13.754;2023-11-21T04:39:51;99859.75;;;9.44;76.74
75063;BME280;63981;51.052;13.754;2023-11-21T04:42:17;99855.34;;;9.44;76.13
75063;BME280;63981;51.052;13.754;2023-11-21T04:44:43;99859.66;;;9.45;76.35
75063;BME280;63981;51.052;13.754;2023-11-21T04:47:10;99850.38;;;9.40;76.32
75063;BME280;63981;51.052;13.754;2023-11-21T04:49:36;99868.47;;;9.44;76.02
75063;BME280;63981;51.052;13.754;2023-11-21T04:52:02;99861.53;;;9.43;76.38
75063;BME280;63981;51.052;13.754;2023-11-21T04:54:30;99858.69;;;9.46;76.17
75063;BME280;63981;51.052;13.754;2023-11-21T04:56:56;99876.16;;;9.48;75.99
75063;BME280;63981;51.052;13.754;2023-11-21T04:59:23;99855.84;;;9.37;76.17
75063;BME280;63981;51.052;13.754;2023-11-21T05:01:53;99868.59;;;9.43;76.00
75063;BME280;63981;51.052;13.754;2023-11-21T05:04:20;99866.19;;;9.40;76.45
75063;BME280;63981;51.052;13.754;2023-11-21T05:06:48;99877.31;;;9.43;76.45
75063;BME280;63981;51.052;13.754;2023-11-21T05:09:14;99878.91;;;9.46;76.87
75063;BME280;63981;51.052;13.754;2023-11-21T05:11:41;99880.16;;;9.40;77.88
75063;BME280;63981;51.052;13.754;2023-11-21T05:14:07;99875.84;;;9.39;76.93
75063;BME280;63981;51.052;13.754;2023-11-21T05:16:34;99875.41;;;9.33;77.58
75063;BME280;63981;51.052;13.754;2023-11-21T05:19:01;99879.81;;;9.32;77.76
75063;BME280;63981;51.052;13.754;2023-11-21T05:21:27;99890.03;;;9.37;77.64
75063;BME280;63981;51.052;13.754;2023-11-21T05:23:55;99894.06;;;9.42;77.26
75063;BME280;63981;51.052;13.754;2023-11-21T05:26:21;99878.78;;;9.35;77.02
75063;BME280;63981;51.052;13.754;2023-11-21T05:28:47;99874.47;;;9.34;77.00
75063;BME280;63981;51.052;13.754;2023-11-21T05:31:13;99892.28;;;9.43;77.40
75063;BME280;63981;51.052;13.754;2023-11-21T05:33:40;99895.25;;;9.51;77.09
75063;BME280;63981;51.052;13.754;2023-11-21T05:36:07;99888.38;;;9.49;77.52
75063;BME280;63981;51.052;13.754;2023-11-21T05:38:35;99899.25;;;9.57;76.92
75063;BME280;63981;51.052;13.754;2023-11-21T05:41:02;99902.38;;;9.62;77.26
75063;BME280;63981;51.052;13.754;2023-11-21T05:43:28;99900.94;;;9.70;76.63
75063;BME280;63981;51.052;13.754;2023-11-21T05:45:56;99893.47;;;9.64;76.03
75063;BME280;63981;51.052;13.754;2023-11-21T05:48:22;99884.91;;;9.48;76.96
75063;BME280;63981;51.052;13.754;2023-11-21T05:50:49;99900.59;;;9.62;76.99
75063;BME280;63981;51.052;13.754;2023-11-21T05:53:18;99896.72;;;9.68;76.96
75063;BME280;63981;51.052;13.754;2023-11-21T05:55:44;99903.16;;;9.77;76.63
75063;BME280;63981;51.052;13.754;2023-11-21T05:58:10;99903.69;;;9.82;76.16
75063;BME280;63981;51.052;13.754;2023-11-21T06:00:36;99900.63;;;9.75;76.24
75063;BME280;63981;51.052;13.754;2023-11-21T06:03:02;99892.19;;;9.70;75.39
75063;BME280;63981;51.052;13.754;2023-11-21T06:05:29;99912.31;;;9.84;75.52
75063;BME280;63981;51.052;13.754;2023-11-21T06:07:57;99901.38;;;9.77;75.71
75063;BME280;63981;51.052;13.754;2023-11-21T06:10:27;99903.25;;;9.75;75.48
75063;BME280;63981;51.052;13.754;2023-11-21T06:12:54;99917.25;;;9.75;74.89
75063;BME280;63981;51.052;13.754;2023-11-21T06:15:20;99918.97;;;9.77;75.34
75063;BME280;63981;51.052;13.754;2023-11-21T06:17:48;99922.72;;;9.72;75.35
75063;BME280;63981;51.052;13.754;2023-11-21T06:20:21;99925.56;;;9.69;75.30
75063;BME280;63981;51.052;13.754;2023-11-21T06:22:49;99930.84;;;9.69;75.43
75063;BME280;63981;51.052;13.754;2023-11-21T06:25:16;99929.03;;;9.70;75.83
75063;BME280;63981;51.052;13.754;2023-11-21T06:27:44;99929.03;;;9.70;76.03
75063;BME280;63981;51.052;13.754;2023-11-21T06:30:11;99901.41;;;9.50;75.93
75063;BME280;63981;51.052;13.754;2023-11-21T06:32:39;99927.75;;;9.63;75.74
75063;BME280;63981;51.052;13.754;2023-11-21T06:35:06;99936.72;;;9.60;76.27
75063;BME280;63981;51.052;13.754;2023-11-21T06:37:33;99939.97;;;9.51;76.62
75063;BME280;63981;51.052;13.754;2023-11-21T06:40:00;99948.78;;;9.50;76.51
75063;BME280;63981;51.052;13.754;2023-11-21T06:42:27;99942.34;;;9.41;75.97
75063;BME280;63981;51.052;13.754;2023-11-21T06:44:53;99941.13;;;9.20;76.77
75063;BME280;63981;51.052;13.754;2023-11-21T06:47:20;99949.97;;;9.19;77.19
75063;BME280;63981;51.052;13.754;2023-11-21T06:49:46;99950.06;;;9.18;77.57
75063;BME280;63981;51.052;13.754;2023-11-21T06:52:15;99947.63;;;9.14;77.96
75063;BME280;63981;51.052;13.754;2023-11-21T06:54:41;99936.84;;;9.05;77.88
75063;BME280;63981;51.052;13.754;2023-11-21T06:57:07;99946.59;;;9.17;78.24
75063;BME280;63981;51.052;13.754;2023-11-21T06:59:34;99958.16;;;9.14;78.35
75063;BME280;63981;51.052;13.754;2023-11-21T07:02:00;99940.22;;;9.07;78.73
75063;BME280;63981;51.052;13.754;2023-11-21T07:04:26;99954.13;;;9.09;78.38
75063;BME280;63981;51.052;13.754;2023-11-21T07:06:53;99956.47;;;9.13;79.02
75063;BME280;63981;51.052;13.754;2023-11-21T07:09:20;99951.31;;;9.12;80.14
75063;BME280;63981;51.052;13.754;2023-11-21T07:11:49;99962.09;;;9.07;79.72
75063;BME280;63981;51.052;13.754;2023-11-21T07:14:15;99956.84;;;9.07;80.26
75063;BME280;63981;51.052;13.754;2023-11-21T07:16:42;99959.19;;;9.12;80.21
75063;BME280;63981;51.052;13.754;2023-11-21T07:19:09;99966.97;;;9.13;80.41
75063;BME280;63981;51.052;13.754;2023-11-21T07:21:35;99958.75;;;9.05;80.71
75063;BME280;63981;51.052;13.754;2023-11-21T07:24:03;99976.34;;;9.18;80.37
75063;BME280;63981;51.052;13.754;2023-11-21T07:26:33;99973.97;;;9.27;80.49
75063;BME280;63981;51.052;13.754;2023-11-21T07:29:00;99976.84;;;9.37;79.83
75063;BME280;63981;51.052;13.754;2023-11-21T07:31:27;99976.94;;;9.35;79.85
75063;BME280;63981;51.052;13.754;2023-11-21T07:33:53;99980.25;;;9.39;79.63
75063;BME280;63981;51.052;13.754;2023-11-21T07:36:19;99979.94;;;9.43;79.79
75063;BME280;63981;51.052;13.754;2023-11-21T07:38:48;99989.00;;;9.52;79.61
75063;BME280;63981;51.052;13.754;2023-11-21T07:41:15;99960.34;;;9.48;79.49
75063;BME280;63981;51.052;13.754;2023-11-21T07:43:42;99981.78;;;9.68;78.98
75063;BME280;63981;51.052;13.754;2023-11-21T07:48:45;99990.09;;;9.75;78.96
75063;BME280;63981;51.052;13.754;2023-11-21T07:51:12;99988.88;;;9.81;79.07
75063;BME280;63981;51.052;13.754;2023-11-21T07:53:39;99993.19;;;9.82;77.76
75063;BME280;63981;51.052;13.754;2023-11-21T07:56:06;100001.19;;;9.80;78.60
75063;BME280;63981;51.052;13.754;2023-11-21T07:58:36;99998.47;;;9.82;78.43
75063;BME280;63981;51.052;13.754;2023-11-21T08:01:03;99992.03;;;9.86;78.19
75063;BME280;63981;51.052;13.754;2023-11-21T08:03:30;99994.25;;;9.92;77.67
75063;BME280;63981;51.052;13.754;2023-11-21T08:05:59;99993.09;;;9.96;77.66
75063;BME280;63981;51.052;13.754;2023-11-21T08:08:25;99994.66;;;9.86;77.42
75063;BME280;63981;51.052;13.754;2023-11-21T08:10:52;99997.63;;;9.81;77.36
75063;BME280;63981;51.052;13.754;2023-11-21T08:13:25;100003.09;;;9.78;78.13
75063;BME280;63981;51.052;13.754;2023-11-21T08:15:54;100005.06;;;9.74;78.18
75063;BME280;63981;51.052;13.754;2023-11-21T08:18:20;100010.53;;;9.71;78.88
75063;BME280;63981;51.052;13.754;2023-11-21T08:20:46;100009.59;;;9.72;78.71
75063;BME280;63981;51.052;13.754;2023-11-21T08:23:15;100013.75;;;9.62;79.37
75063;BME280;63981;51.052;13.754;2023-11-21T08:25:45;100009.84;;;9.55;80.25
75063;BME280;63981;51.052;13.754;2023-11-21T08:28:12;100014.28;;;9.55;80.18
75063;BME280;63981;51.052;13.754;2023-11-21T08:30:40;100019.22;;;9.59;80.98
75063;BME280;63981;51.052;13.754;2023-11-21T08:33:07;100013.22;;;9.57;81.18
75063;BME280;63981;51.052;13.754;2023-11-21T08:35:34;100009.84;;;9.55;81.49
75063;BME280;63981;51.052;13.754;2023-11-21T08:38:02;100008.91;;;9.56;81.58
75063;BME280;63981;51.052;13.754;2023-11-21T08:40:28;100006.59;;;9.52;81.40
75063;BME280;63981;51.052;13.754;2023-11-21T08:42:55;100012.81;;;9.63;82.36
75063;BME280;63981;51.052;13.754;2023-11-21T08:45:21;100005.22;;;9.59;82.29
75063;BME280;63981;51.052;13.754;2023-11-21T08:47:48;100015.66;;;9.60;82.27
75063;BME280;63981;51.052;13.754;2023-11-21T08:50:14;100015.84;;;9.57;82.40
75063;BME280;63981;51.052;13.754;2023-11-21T08:52:41;100024.91;;;9.53;82.70
75063;BME280;63981;51.052;13.754;2023-11-21T08:55:08;100027.81;;;9.49;83.33
75063;BME280;63981;51.052;13.754;2023-11-21T08:57:35;100019.97;;;9.34;83.98
75063;BME280;63981;51.052;13.754;2023-11-21T09:00:05;100026.75;;;9.24;84.46
75063;BME280;63981;51.052;13.754;2023-11-21T09:02:36;100029.06;;;9.16;85.02
75063;BME280;63981;51.052;13.754;2023-11-21T09:05:06;100031.31;;;9.08;85.88
75063;BME280;63981;51.052;13.754;2023-11-21T09:07:32;100036.03;;;9.03;86.44
75063;BME280;63981;51.052;13.754;2023-11-21T09:09:59;100043.53;;;8.95;86.90
75063;BME280;63981;51.052;13.754;2023-11-21T09:12:25;100043.44;;;8.96;87.11
75063;BME280;63981;51.052;13.754;2023-11-21T09:14:51;100043.44;;;8.96;87.03
75063;BME280;63981;51.052;13.754;2023-11-21T09:17:17;100053.09;;;8.96;87.19
75063;BME280;63981;51.052;13.754;2023-11-21T09:19:43;100050.69;;;8.93;87.41
75063;BME280;63981;51.052;13.754;2023-11-21T09:22:11;100052.25;;;8.95;87.25
75063;BME280;63981;51.052;13.754;2023-11-21T09:24:37;100059.50;;;8.92;87.25
75063;BME280;63981;51.052;13.754;2023-11-21T09:27:03;100053.19;;;8.94;87.70
75063;BME280;63981;51.052;13.754;2023-11-21T09:29:31;100061.00;;;8.96;87.70
75063;BME280;63981;51.052;13.754;2023-11-21T09:31:57;100060.16;;;8.95;87.58
75063;BME280;63981;51.052;13.754;2023-11-21T09:34:27;100063.81;;;8.93;87.37
75063;BME280;63981;51.052;13.754;2023-11-21T09:36:53;100059.31;;;8.95;87.19
75063;BME280;63981;51.052;13.754;2023-11-21T09:39:19;100063.72;;;8.94;87.13
75063;BME280;63981;51.052;13.754;2023-11-21T09:41:52;100071.06;;;8.89;87.32
75063;BME280;63981;51.052;13.754;2023-11-21T09:44:35;100064.13;;;8.88;87.72
75063;BME280;63981;51.052;13.754;2023-11-21T09:47:01;100066.75;;;8.88;87.93
75063;BME280;63981;51.052;13.754;2023-11-21T09:49:28;100066.06;;;8.84;87.40
75063;BME280;63981;51.052;13.754;2023-11-21T09:51:55;100085.25;;;8.86;87.14
75063;BME280;63981;51.052;13.754;2023-11-21T09:54:23;100085.88;;;8.76;86.56
75063;BME280;63981;51.052;13.754;2023-11-21T09:56:49;100088.31;;;8.65;86.53
75063;BME280;63981;51.052;13.754;2023-11-21T09:59:16;100087.16;;;8.54;86.63
75063;BME280;63981;51.052;13.754;2023-11-21T10:01:42;100091.66;;;8.38;86.89
75063;BME280;63981;51.052;13.754;2023-11-21T10:04:09;100103.00;;;8.39;87.39
75063;BME280;63981;51.052;13.754;2023-11-21T10:06:39;100107.59;;;8.35;86.67
75063;BME280;63981;51.052;13.754;2023-11-21T10:09:10;100113.78;;;8.34;85.96
75063;BME280;63981;51.052;13.754;2023-11-21T10:11:47;100096.63;;;8.13;85.14
75063;BME280;63981;51.052;13.754;2023-11-21T10:14:16;100114.06;;;8.14;85.12
75063;BME280;63981;51.052;13.754;2023-11-21T10:16:45;100123.91;;;8.10;85.40
75063;BME280;63981;51.052;13.754;2023-11-21T10:19:12;100119.59;;;8.09;85.26
75063;BME280;63981;51.052;13.754;2023-11-21T10:21:42;100125.84;;;8.07;84.75
75063;BME280;63981;51.052;13.754;2023-11-21T10:24:08;100131.81;;;7.94;84.17
75063;BME280;63981;51.052;13.754;2023-11-21T10:26:34;100143.16;;;7.95;84.34
75063;BME280;63981;51.052;13.754;2023-11-21T10:29:02;100136.47;;;7.89;83.70
75063;BME280;63981;51.052;13.754;2023-11-21T10:31:32;100149.94;;;7.83;83.32
75063;BME280;63981;51.052;13.754;2023-11-21T10:34:15;100151.03;;;7.79;83.51
75063;BME280;63981;51.052;13.754;2023-11-21T10:36:42;100160.59;;;7.80;83.24
75063;BME280;63981;51.052;13.754;2023-11-21T10:39:08;100158.06;;;7.79;83.10
75063;BME280;63981;51.052;13.754;2023-11-21T10:41:37;100164.00;;;7.82;82.32
75063;BME280;63981;51.052;13.754;2023-11-21T10:44:04;100159.91;;;7.77;81.87
75063;BME280;63981;51.052;13.754;2023-11-21T10:46:33;100165.59;;;7.69;82.15
75063;BME280;63981;51.052;13.754;2023-11-21T10:49:00;100173.53;;;7.67;82.41
75063;BME280;63981;51.052;13.754;2023-11-21T10:51:26;100170.06;;;7.67;82.45
75063;BME280;63981;51.052;13.754;2023-11-21T10:53:52;100175.16;;;7.70;82.50
75063;BME280;63981;51.052;13.754;2023-11-21T10:56:19;100172.63;;;7.68;82.41
75063;BME280;63981;51.052;13.754;2023-11-21T10:58:48;100176.94;;;7.69;82.07
75063;BME280;63981;51.052;13.754;2023-11-21T11:01:17;100175.56;;;7.62;81.92
75063;BME280;63981;51.052;13.754;2023-11-21T11:03:44;100173.03;;;7.61;81.39
75063;BME280;63981;51.052;13.754;2023-11-21T11:06:12;100181.50;;;7.66;80.83
75063;BME280;63981;51.052;13.754;2023-11-21T11:08:39;100175.75;;;7.59;79.56
75063;BME280;63981;51.052;13.754;2023-11-21T11:11:06;100187.09;;;7.60;79.89
75063;BME280;63981;51.052;13.754;2023-11-21T11:13:32;100188.19;;;7.56;80.31
75063;BME280;63981;51.052;13.754;2023-11-21T11:16:00;100194.34;;;7.55;80.44
75063;BME280;63981;51.052;13.754;2023-11-21T11:18:33;100199.59;;;7.55;79.50
75063;BME280;63981;51.052;13.754;2023-11-21T11:21:13;100197.97;;;7.52;78.65
75063;BME280;63981;51.052;13.754;2023-11-21T11:23:59;100197.47;;;7.46;79.31
75063;BME280;63981;51.052;13.754;2023-11-21T11:29:42;100210.25;;;7.52;79.07
75063;BME280;63981;51.052;13.754;2023-11-21T11:35:11;100194.84;;;7.46;78.61
75063;BME280;63981;51.052;13.754;2023-11-21T11:37:43;100214.16;;;7.45;78.46
75063;BME280;63981;51.052;13.754;2023-11-21T11:40:11;100218.69;;;7.41;78.90
75063;BME280;63981;51.052;13.754;2023-11-21T11:42:37;100218.78;;;7.39;79.78
75063;BME280;63981;51.052;13.754;2023-11-21T11:45:17;100209.63;;;7.31;79.62
75063;BME280;63981;51.052;13.754;2023-11-21T11:47:47;100212.84;;;7.36;79.50
75063;BME280;63981;51.052;13.754;2023-11-21T11:50:14;100216.41;;;7.35;78.77
75063;BME280;63981;51.052;13.754;2023-11-21T11:52:43;100223.72;;;7.28;78.67
75063;BME280;63981;51.052;13.754;2023-11-21T11:55:13;100223.91;;;7.25;78.93
75063;BME280;63981;51.052;13.754;2023-11-21T11:57:41;100224.66;;;7.27;78.80
75063;BME280;63981;51.052;13.754;2023-11-21T12:00:18;100234.63;;;7.21;79.51
75063;BME280;63981;51.052;13.754;2023-11-21T12:02:53;100224.47;;;7.15;79.11
75063;BME280;63981;51.052;13.754;2023-11-21T12:05:20;100218.88;;;7.05;79.75
75063;BME280;63981;51.052;13.754;2023-11-21T12:07:48;100228.34;;;7.07;78.84
75063;BME280;63981;51.052;13.754;2023-11-21T12:10:16;100230.97;;;7.07;78.89
75063;BME280;63981;51.052;13.754;2023-11-21T12:12:48;100237.22;;;7.05;79.42
75063;BME280;63981;51.052;13.754;2023-11-21T12:15:16;100249.53;;;7.03;79.03
75063;BME280;63981;51.052;13.754;2023-11-21T12:17:43;100240.53;;;6.91;79.47
75063;BME280;63981;51.052;13.754;2023-11-21T12:20:11;100253.78;;;6.88;79.25
75063;BME280;63981;51.052;13.754;2023-11-21T12:22:48;100251.47;;;6.82;79.70
75063;BME280;63981;51.052;13.754;2023-11-21T12:25:18;100255.03;;;6.81;79.15
75063;BME280;63981;51.052;13.754;2023-11-21T12:27:45;100257.81;;;6.78;79.86
75063;BME280;63981;51.052;13.754;2023-11-21T12:30:12;100263.03;;;6.78;80.21
75063;BME280;63981;51.052;13.754;2023-11-21T12:32:40;100271.66;;;6.80;79.98
75063;BME280;63981;51.052;13.754;2023-11-21T12:35:09;100276.75;;;6.83;78.67
75063;BME280;63981;51.052;13.754;2023-11-21T12:37:37;100269.72;;;6.84;79.48
75063;BME280;63981;51.052;13.754;2023-11-21T12:40:07;100267.81;;;6.87;79.89
75063;BME280;63981;51.052;13.754;2023-11-21T12:42:34;100268.50;;;6.91;79.88
75063;BME280;63981;51.052;13.754;2023-11-21T12:47:43;100275.66;;;6.87;79.96
75063;BME280;63981;51.052;13.754;2023-11-21T12:50:11;100278.53;;;6.83;80.18
75063;BME280;63981;51.052;13.754;2023-11-21T12:52:46;100277.59;;;6.84;80.70
75063;BME280;63981;51.052;13.754;2023-11-21T12:55:22;100286.31;;;6.84;80.61
75063;BME280;63981;51.052;13.754;2023-11-21T12:57:49;100286.38;;;6.83;81.12
75063;BME280;63981;51.052;13.754;2023-11-21T13:00:18;100295.69;;;6.88;80.22
75063;BME280;63981;51.052;13.754;2023-11-21T13:02:54;100299.16;;;6.89;79.97
75063;BME280;63981;51.052;13.754;2023-11-21T13:05:30;100303.03;;;6.82;79.95
75063;BME280;63981;51.052;13.754;2023-11-21T13:07:59;100303.31;;;6.75;80.08